Time;durP1;ratioP1;P1;durP2;ratioP2;P2;SDS_P1;SDS_P2;PMS_P1;PMS_P2;Temp;Humidity;BMP_temperature;BMP_pressure;BME280_temperature;BME280_humidity;BME280_pressure;Samples;Min_cycle;Max_cycle;Signal;HPM_P1;HPM_P2
2022/08/13 00:02:15;;;;;;;5.00;2.97;;;19.80;99.90;;;;;;4859655;29;20049;-66
2022/08/13 00:04:55;;;;;;;5.40;3.13;;;19.80;99.90;;;;;;4858058;29;20050;-66
2022/08/13 00:07:22;;;;;;;5.57;3.45;;;19.70;99.90;;;;;;4848015;29;20077;-66
2022/08/13 00:09:49;;;;;;;5.75;3.60;;;19.70;99.90;;;;;;4858939;29;20538;-66
2022/08/13 00:15:16;;;;;;;6.63;3.50;;;19.70;99.90;;;;;;4858951;29;20379;-66
2022/08/13 00:17:44;;;;;;;6.85;3.47;;;19.70;99.90;;;;;;4859272;29;20057;-66
2022/08/13 00:20:11;;;;;;;7.72;3.20;;;19.60;99.90;;;;;;4858921;29;20046;-66
2022/08/13 00:22:38;;;;;;;5.32;3.70;;;19.60;99.90;;;;;;4859143;29;20049;-66
2022/08/13 00:25:07;;;;;;;3.83;3.45;;;19.60;99.90;;;;;;4858279;29;20050;-66
2022/08/13 00:27:34;;;;;;;4.63;3.38;;;19.50;99.90;;;;;;4861261;29;20057;-66
2022/08/13 00:30:00;;;;;;;4.90;3.72;;;19.40;99.90;;;;;;4858326;29;20053;-66
2022/08/13 00:32:29;;;;;;;5.90;3.15;;;19.40;99.90;;;;;;4857617;29;20096;-66
2022/08/13 00:34:59;;;;;;;5.38;3.55;;;19.40;99.90;;;;;;4859490;29;20111;-66
2022/08/13 00:37:26;;;;;;;3.83;3.40;;;19.40;99.90;;;;;;4857877;29;20124;-66
2022/08/13 00:39:53;;;;;;;3.55;3.25;;;19.30;99.90;;;;;;4859630;29;20053;-66
2022/08/13 00:42:24;;;;;;;3.70;3.30;;;19.20;99.90;;;;;;4860187;29;20045;-66
2022/08/13 00:44:50;;;;;;;4.57;3.55;;;19.20;99.90;;;;;;4859724;29;20056;-66
2022/08/13 00:50:00;;;;;;;5.60;3.72;;;19.10;99.90;;;;;;4858459;29;20054;-66
2022/08/13 00:52:38;;;;;;;3.85;3.45;;;19.00;99.90;;;;;;4876237;29;20056;-66
2022/08/13 00:55:07;;;;;;;5.40;3.65;;;19.00;99.90;;;;;;4857850;29;20049;-66
2022/08/13 00:57:33;;;;;;;3.97;3.58;;;18.90;99.90;;;;;;4843506;29;20049;-66
2022/08/13 00:59:59;;;;;;;9.25;3.70;;;18.90;99.90;;;;;;4847516;29;20094;-66
2022/08/13 01:02:25;;;;;;;4.97;3.22;;;18.80;99.90;;;;;;4861650;29;20475;-66
2022/08/13 01:04:50;;;;;;;3.95;3.60;;;18.80;99.90;;;;;;4861826;29;20145;-66
2022/08/13 01:07:19;;;;;;;4.30;3.45;;;18.80;99.90;;;;;;4862618;29;20053;-66
2022/08/13 01:09:45;;;;;;;4.43;3.47;;;18.80;99.90;;;;;;4862639;29;20045;-66
2022/08/13 01:12:13;;;;;;;7.57;3.80;;;18.70;99.90;;;;;;4863538;29;20188;-66
2022/08/13 01:14:41;;;;;;;5.32;3.45;;;18.70;99.90;;;;;;4866889;29;20084;-66
2022/08/13 01:17:08;;;;;;;4.78;3.80;;;18.70;99.90;;;;;;4865232;29;20049;-66
2022/08/13 01:19:36;;;;;;;4.03;3.63;;;18.70;99.90;;;;;;4861855;29;20547;-66
2022/08/13 01:22:02;;;;;;;4.30;3.22;;;18.70;99.90;;;;;;4861713;29;20046;-66
2022/08/13 01:24:28;;;;;;;5.03;3.30;;;18.60;99.90;;;;;;4857178;29;20594;-66
2022/08/13 01:26:57;;;;;;;5.30;3.53;;;18.60;99.90;;;;;;4855380;29;20125;-66
2022/08/13 01:29:23;;;;;;;4.00;3.60;;;18.50;99.90;;;;;;4861997;29;20042;-66
2022/08/13 01:31:51;;;;;;;5.75;3.85;;;18.50;99.90;;;;;;4861942;29;20052;-66
2022/08/13 01:34:17;;;;;;;8.00;3.75;;;18.40;99.90;;;;;;4860771;29;20098;-66
2022/08/13 01:36:46;;;;;;;5.13;3.63;;;18.40;99.90;;;;;;4861111;29;20049;-66
2022/08/13 01:39:12;;;;;;;4.07;3.10;;;18.30;99.90;;;;;;4861446;29;20077;-66
2022/08/13 01:41:38;;;;;;;6.00;3.88;;;18.30;99.90;;;;;;4864217;29;20049;-66
2022/08/13 01:44:05;;;;;;;4.15;3.25;;;18.30;99.90;;;;;;4871665;29;20045;-66
2022/08/13 01:52:04;;;;;;;5.65;3.58;;;18.10;99.90;;;;;;4861168;29;20555;-66
2022/08/13 01:54:35;;;;;;;6.55;3.72;;;18.00;99.90;;;;;;4859403;29;20056;-66
2022/08/13 01:57:03;;;;;;;6.40;3.80;;;18.00;99.90;;;;;;4857691;29;20049;-66
2022/08/13 01:59:34;;;;;;;3.53;3.10;;;18.00;99.90;;;;;;4861063;29;20495;-66
2022/08/13 02:02:01;;;;;;;5.25;3.53;;;17.90;99.90;;;;;;4860732;29;20498;-66
2022/08/13 02:04:28;;;;;;;5.63;3.80;;;17.90;99.90;;;;;;4861706;29;20046;-66
2022/08/13 02:06:54;;;;;;;8.23;3.80;;;17.80;99.90;;;;;;4859861;29;20049;-66
2022/08/13 02:09:23;;;;;;;5.10;3.83;;;17.80;99.90;;;;;;4860143;29;20054;-66
2022/08/13 02:11:49;;;;;;;6.07;3.63;;;17.70;99.90;;;;;;4859741;29;20084;-66
2022/08/13 02:14:16;;;;;;;4.40;3.60;;;17.70;99.90;;;;;;4861879;29;20083;-66
2022/08/13 02:16:42;;;;;;;5.70;3.78;;;17.70;99.90;;;;;;4861158;29;20050;-66
2022/08/13 02:19:08;;;;;;;4.40;3.60;;;17.60;99.90;;;;;;4857291;29;20050;-66
2022/08/13 02:21:36;;;;;;;4.75;4.10;;;17.50;99.90;;;;;;4854140;29;20053;-66
2022/08/13 02:24:03;;;;;;;5.70;3.70;;;17.50;99.90;;;;;;4860567;29;20061;-66
2022/08/13 02:26:32;;;;;;;5.95;4.00;;;17.50;99.90;;;;;;4860809;29;20056;-66
2022/08/13 02:29:00;;;;;;;4.05;3.72;;;17.50;99.90;;;;;;4875601;29;20088;-66
2022/08/13 02:31:28;;;;;;;4.05;3.75;;;17.40;99.90;;;;;;4861225;29;20376;-66
2022/08/13 02:33:54;;;;;;;4.38;3.50;;;17.40;99.90;;;;;;4861220;29;20072;-66
2022/08/13 02:36:23;;;;;;;7.10;3.65;;;17.40;99.90;;;;;;4860159;29;20470;-66
2022/08/13 02:39:00;;;;;;;3.83;3.42;;;17.30;99.90;;;;;;4875113;29;20412;-66
2022/08/13 02:41:38;;;;;;;5.88;3.65;;;17.30;99.90;;;;;;4860111;29;20045;-66
2022/08/13 02:44:08;;;;;;;4.22;3.80;;;17.30;99.90;;;;;;4853616;29;20114;-66
2022/08/13 02:46:34;;;;;;;7.10;4.63;;;17.30;99.90;;;;;;4841886;29;20395;-66
2022/08/13 02:49:01;;;;;;;6.15;3.88;;;17.20;99.90;;;;;;4860938;29;20049;-66
2022/08/13 02:51:27;;;;;;;5.40;4.03;;;17.20;99.90;;;;;;4860336;29;20085;-66
2022/08/13 02:53:53;;;;;;;5.10;3.58;;;17.20;99.90;;;;;;4859942;29;20044;-66
2022/08/13 02:56:19;;;;;;;5.95;3.83;;;17.20;99.90;;;;;;4857707;29;20053;-66
2022/08/13 02:58:45;;;;;;;5.40;3.88;;;17.20;99.90;;;;;;4859668;29;20124;-66
2022/08/13 03:01:38;;;;;;;6.72;3.72;;;17.10;99.90;;;;;;4860320;29;20578;-66
2022/08/13 03:04:22;;;;;;;4.65;4.10;;;17.10;99.90;;;;;;4847967;29;20045;-66
2022/08/13 03:06:51;;;;;;;9.00;4.00;;;17.10;99.90;;;;;;4858954;29;20081;-66
2022/08/13 03:09:22;;;;;;;4.95;3.72;;;17.10;99.90;;;;;;4843978;29;20044;-66
2022/08/13 03:11:49;;;;;;;8.63;3.70;;;17.00;99.90;;;;;;4843803;29;20037;-66
2022/08/13 03:14:24;;;;;;;4.10;3.70;;;17.00;99.90;;;;;;4864516;29;20109;-66
2022/08/13 03:16:49;;;;;;;5.93;3.60;;;17.00;99.90;;;;;;4859979;29;20073;-66
2022/08/13 03:19:15;;;;;;;6.95;3.90;;;16.90;99.90;;;;;;4858894;29;20073;-66
2022/08/13 03:21:50;;;;;;;4.70;3.80;;;16.90;99.90;;;;;;4859006;29;20060;-66
2022/08/13 03:24:18;;;;;;;4.72;3.80;;;16.90;99.90;;;;;;4859657;29;20049;-66
2022/08/13 03:26:44;;;;;;;5.00;3.92;;;16.90;99.90;;;;;;4844772;29;20447;-66
2022/08/13 03:29:11;;;;;;;7.10;4.15;;;17.00;99.90;;;;;;4855079;29;20046;-66
2022/08/13 03:31:37;;;;;;;4.65;3.60;;;16.80;99.90;;;;;;4855575;29;20065;-66
2022/08/13 03:34:04;;;;;;;6.63;4.18;;;16.80;99.90;;;;;;4843092;29;20068;-66
2022/08/13 03:36:31;;;;;;;4.03;3.63;;;16.80;99.90;;;;;;4860415;29;20101;-66
2022/08/13 03:38:58;;;;;;;4.97;3.88;;;16.80;99.90;;;;;;4858989;29;20057;-66
2022/08/13 03:41:24;;;;;;;6.95;4.10;;;16.70;99.90;;;;;;4859861;29;20145;-66
2022/08/13 03:43:51;;;;;;;6.35;4.05;;;16.70;99.90;;;;;;4858656;29;20494;-66
2022/08/13 03:46:20;;;;;;;4.30;3.88;;;16.70;99.90;;;;;;4841991;29;20383;-66
2022/08/13 03:48:47;;;;;;;6.10;3.47;;;16.70;99.90;;;;;;4854289;29;20046;-66
2022/08/13 03:51:14;;;;;;;6.18;3.55;;;16.70;99.90;;;;;;4841485;29;20448;-66
2022/08/13 03:53:41;;;;;;;6.53;3.72;;;16.70;99.90;;;;;;4850355;29;20165;-66
2022/08/13 03:56:07;;;;;;;4.57;3.95;;;16.60;99.90;;;;;;4848255;29;20054;-66
2022/08/13 03:58:33;;;;;;;4.28;3.88;;;16.60;99.90;;;;;;4847311;29;20160;-66
2022/08/13 04:01:01;;;;;;;9.30;4.30;;;16.50;99.90;;;;;;4841224;29;20085;-66
2022/08/13 04:03:36;;;;;;;6.10;3.80;;;16.50;99.90;;;;;;4828128;29;20047;-66
2022/08/13 04:06:07;;;;;;;4.88;3.72;;;16.50;99.90;;;;;;4858221;29;20689;-66
2022/08/13 04:08:36;;;;;;;5.47;3.80;;;16.50;99.90;;;;;;4854885;29;20347;-66
2022/08/13 04:11:06;;;;;;;3.97;3.67;;;16.50;99.90;;;;;;4854705;29;20089;-66
2022/08/13 04:13:36;;;;;;;3.95;3.50;;;16.50;99.90;;;;;;4857071;29;20128;-66
2022/08/13 04:16:23;;;;;;;6.20;3.75;;;16.40;99.90;;;;;;4856772;29;20604;-66
2022/08/13 04:18:50;;;;;;;9.68;4.22;;;16.40;99.90;;;;;;4848822;29;20050;-66
2022/08/13 04:21:18;;;;;;;5.68;4.20;;;16.50;99.90;;;;;;4823173;29;20055;-66
2022/08/13 04:23:44;;;;;;;5.10;4.20;;;16.50;99.90;;;;;;4842383;29;20058;-66
2022/08/13 04:26:14;;;;;;;4.72;4.20;;;16.40;99.90;;;;;;4840404;29;20054;-66
2022/08/13 04:28:41;;;;;;;5.70;3.90;;;16.40;99.90;;;;;;4840101;29;20054;-66
2022/08/13 04:31:09;;;;;;;4.63;4.07;;;16.40;99.90;;;;;;4824650;29;20045;-66
2022/08/13 04:33:36;;;;;;;9.98;4.35;;;16.40;99.90;;;;;;4842063;29;20109;-66
2022/08/13 04:36:03;;;;;;;4.20;3.65;;;16.30;99.90;;;;;;4844106;29;20560;-66
2022/08/13 04:38:28;;;;;;;4.70;3.85;;;16.30;99.90;;;;;;4844547;29;20042;-66
2022/08/13 04:40:54;;;;;;;6.72;4.18;;;16.40;99.90;;;;;;4837097;29;20145;-66
2022/08/13 04:43:19;;;;;;;4.15;3.60;;;16.40;99.90;;;;;;4838448;29;20046;-66
2022/08/13 04:45:45;;;;;;;5.07;3.72;;;16.40;99.90;;;;;;4844114;29;20401;-66
2022/08/13 04:48:13;;;;;;;4.63;3.70;;;16.50;99.90;;;;;;4842582;29;20094;-66
2022/08/13 04:50:40;;;;;;;4.00;3.65;;;16.40;99.90;;;;;;4832772;29;20060;-66
2022/08/13 04:53:09;;;;;;;8.07;4.25;;;16.50;99.90;;;;;;4844017;29;20061;-66
2022/08/13 04:55:37;;;;;;;4.05;3.63;;;16.50;99.90;;;;;;4844467;29;20046;-66
2022/08/13 04:58:08;;;;;;;4.30;3.90;;;16.50;99.90;;;;;;4845135;29;20069;-66
2022/08/13 05:00:34;;;;;;;8.73;4.03;;;16.50;99.90;;;;;;4846329;29;20050;-66
2022/08/13 05:03:11;;;;;;;4.53;3.63;;;16.50;99.90;;;;;;4842288;29;20117;-66
2022/08/13 05:05:36;;;;;;;4.50;3.65;;;16.60;99.90;;;;;;4843169;29;20048;-66
2022/08/13 05:08:07;;;;;;;4.63;4.22;;;16.60;99.90;;;;;;4844368;29;20054;-65
2022/08/13 05:10:38;;;;;;;4.63;3.50;;;16.70;99.90;;;;;;4848467;29;20049;-65
2022/08/13 05:13:22;;;;;;;3.85;3.50;;;16.80;99.90;;;;;;4852460;29;20495;-65
2022/08/13 05:15:47;;;;;;;5.93;3.90;;;16.90;99.90;;;;;;4851668;29;20491;-65
2022/08/13 05:18:14;;;;;;;4.30;3.78;;;16.90;99.90;;;;;;4857103;29;20049;-66
2022/08/13 05:20:39;;;;;;;5.50;3.88;;;16.90;99.90;;;;;;4844034;29;20049;-65
2022/08/13 05:23:10;;;;;;;3.50;3.20;;;16.90;99.90;;;;;;4844340;29;20080;-65
2022/08/13 05:25:36;;;;;;;5.47;3.92;;;16.90;99.90;;;;;;4859843;29;20052;-66
2022/08/13 05:28:02;;;;;;;4.18;3.63;;;17.00;99.90;;;;;;4869449;29;20049;-66
2022/08/13 05:30:28;;;;;;;4.55;3.80;;;17.00;99.90;;;;;;4868281;29;20049;-66
2022/08/13 05:32:57;;;;;;;4.10;3.78;;;17.10;99.90;;;;;;4859774;29;20076;-66
2022/08/13 05:35:25;;;;;;;4.75;4.15;;;17.10;99.90;;;;;;4862349;29;20096;-66
2022/08/13 05:37:50;;;;;;;4.25;3.92;;;17.20;99.90;;;;;;4869994;29;20052;-65
2022/08/13 05:40:16;;;;;;;5.32;3.95;;;17.40;99.90;;;;;;4872958;29;20049;-65
2022/08/13 05:42:42;;;;;;;7.90;3.72;;;17.60;99.90;;;;;;4862721;29;20052;-66
2022/08/13 05:56:37;;;;;;;3.70;2.80;;;19.00;99.90;;;;;;4857729;29;20057;-66
2022/08/13 06:03:22;;;;;;;4.72;3.33;;;20.90;99.90;;;;;;4862078;29;20542;-66
2022/08/13 06:04:38;;;;;;;4.22;3.35;;;23.00;99.90;;;;;;4862412;29;20108;-66
2022/08/13 06:07:04;;;;;;;5.50;3.40;;;23.70;96.80;;;;;;4860671;29;20045;-66
2022/08/13 06:09:29;;;;;;;3.10;2.90;;;24.10;92.40;;;;;;4860670;29;20057;-65
2022/08/13 06:11:59;;;;;;;3.58;2.90;;;24.50;89.50;;;;;;4861681;29;20056;-66
2022/08/13 06:14:25;;;;;;;3.10;2.85;;;24.80;84.10;;;;;;4870012;29;20549;-66
2022/08/13 06:16:51;;;;;;;3.05;2.70;;;24.90;80.20;;;;;;4874809;29;20385;-66
2022/08/13 06:19:22;;;;;;;4.18;2.80;;;24.30;81.30;;;;;;4877375;29;20068;-66
2022/08/13 06:21:50;;;;;;;6.60;2.58;;;23.50;85.90;;;;;;4874779;29;20124;-67
2022/08/13 06:24:17;;;;;;;3.40;2.70;;;22.90;91.60;;;;;;4861599;29;20053;-66
2022/08/13 06:26:42;;;;;;;5.38;2.92;;;22.40;94.90;;;;;;4861731;29;20053;-66
2022/08/13 06:29:09;;;;;;;6.15;2.42;;;22.00;96.00;;;;;;4844247;29;20367;-65
2022/08/13 06:31:38;;;;;;;3.80;2.40;;;21.80;97.70;;;;;;4859655;29;20125;-65
2022/08/13 06:34:33;;;;;;;3.33;2.40;;;21.60;98.90;;;;;;4861204;29;20133;-66
2022/08/13 06:36:59;;;;;;;4.47;2.47;;;21.50;97.60;;;;;;4867262;29;20133;-66
2022/08/13 06:43:50;;;;;;;2.70;2.20;;;21.50;96.60;;;;;;4841800;29;20122;-66
2022/08/13 06:46:22;;;;;;;3.67;2.45;;;21.60;98.80;;;;;;4841264;29;20053;-65
2022/08/13 06:48:49;;;;;;;2.70;2.25;;;21.70;99.50;;;;;;4874110;29;20056;-67
2022/08/13 06:51:14;;;;;;;2.60;2.40;;;21.80;98.80;;;;;;4860923;29;20037;-67
2022/08/13 06:53:43;;;;;;;3.70;2.22;;;21.80;98.70;;;;;;4859921;29;20360;-67
2022/08/13 06:56:17;;;;;;;2.97;2.10;;;22.00;98.30;;;;;;4871916;29;20131;-67
2022/08/13 06:59:34;;;;;;;2.60;2.20;;;22.10;95.60;;;;;;4863080;29;20490;-67
2022/08/13 07:02:02;;;;;;;2.40;1.88;;;22.20;94.50;;;;;;4879430;29;20512;-67
2022/08/13 07:04:28;;;;;;;2.10;1.90;;;22.40;94.80;;;;;;4879870;29;20064;-67
2022/08/13 07:06:55;;;;;;;4.38;2.10;;;22.50;93.80;;;;;;4879156;29;20049;-67
2022/08/13 07:09:22;;;;;;;2.30;2.10;;;22.60;92.80;;;;;;4870083;29;20056;-67
2022/08/13 07:11:48;;;;;;;4.40;2.15;;;22.80;91.40;;;;;;4861008;29;20050;-67
2022/08/13 07:14:15;;;;;;;2.55;1.77;;;22.90;91.00;;;;;;4861472;29;20356;-67
2022/08/13 07:16:44;;;;;;;2.08;1.88;;;23.00;90.30;;;;;;4861054;29;20054;-67
2022/08/13 07:19:13;;;;;;;3.13;2.15;;;23.20;88.10;;;;;;4861354;29;20061;-67
2022/08/13 07:21:40;;;;;;;2.60;1.98;;;23.30;84.30;;;;;;4859281;29;20054;-66
2022/08/13 07:24:07;;;;;;;3.70;2.17;;;23.40;82.60;;;;;;4863024;29;20176;-67
2022/08/13 07:26:36;;;;;;;4.45;2.13;;;23.50;80.40;;;;;;4862759;29;20383;-67
2022/08/13 07:29:05;;;;;;;1.92;1.77;;;23.60;80.50;;;;;;4879389;29;20041;-67
2022/08/13 07:31:33;;;;;;;2.85;2.25;;;23.80;79.90;;;;;;4879506;29;20053;-67
2022/08/13 07:34:04;;;;;;;3.85;2.15;;;23.90;78.90;;;;;;4863156;29;20382;-68
2022/08/13 07:36:33;;;;;;;5.05;1.90;;;24.10;78.70;;;;;;4879364;29;20378;-67
2022/08/13 07:39:01;;;;;;;2.33;1.80;;;24.30;77.80;;;;;;4847172;29;20041;-67
2022/08/13 07:41:27;;;;;;;3.05;1.73;;;24.40;76.70;;;;;;4858675;29;20443;-67
2022/08/13 07:43:53;;;;;;;4.13;2.10;;;24.50;75.40;;;;;;4844448;29;20053;-67
2022/08/13 07:46:19;;;;;;;6.28;2.20;;;24.70;75.40;;;;;;4860426;29;20182;-67
2022/08/13 07:48:51;;;;;;;4.78;1.80;;;24.80;73.10;;;;;;4858951;29;20077;-66
2022/08/13 07:51:20;;;;;;;2.97;1.90;;;24.90;72.10;;;;;;4860516;29;20098;-66
2022/08/13 07:53:51;;;;;;;8.40;2.13;;;25.00;71.50;;;;;;4860504;29;20078;-68
2022/08/13 07:56:28;;;;;;;3.22;2.00;;;25.00;68.90;;;;;;4861386;29;20060;-67
2022/08/13 07:59:15;;;;;;;2.88;1.90;;;25.20;70.50;;;;;;4861836;29;20090;-67
2022/08/13 08:01:44;;;;;;;2.67;1.90;;;25.30;70.00;;;;;;4875818;29;20066;-67
2022/08/13 08:04:13;;;;;;;3.35;1.40;;;25.40;69.40;;;;;;4856323;29;20093;-67
2022/08/13 08:06:39;;;;;;;6.13;1.92;;;25.60;69.90;;;;;;4849547;29;20185;-67
2022/08/13 08:09:07;;;;;;;2.60;1.90;;;25.70;69.10;;;;;;4861360;29;20057;-67
2022/08/13 08:14:19;;;;;;;3.15;1.50;;;26.00;67.40;;;;;;4860882;29;20136;-66
2022/08/13 08:16:49;;;;;;;1.98;1.52;;;26.10;65.90;;;;;;4864418;29;20128;-67
2022/08/13 08:19:15;;;;;;;1.85;1.58;;;26.20;65.10;;;;;;4861182;29;20046;-67
2022/08/13 08:21:42;;;;;;;7.15;1.83;;;26.40;65.10;;;;;;4858176;29;20128;-67
2022/08/13 08:24:09;;;;;;;2.58;1.60;;;26.50;64.60;;;;;;4867533;29;20057;-67
2022/08/13 08:26:35;;;;;;;1.88;1.77;;;26.60;63.20;;;;;;4879579;29;20045;-68
2022/08/13 08:29:08;;;;;;;2.78;1.42;;;26.80;62.10;;;;;;4874723;29;20048;-67
2022/08/13 08:31:39;;;;;;;1.70;1.60;;;26.80;61.10;;;;;;4873780;29;20394;-68
2022/08/13 08:34:07;;;;;;;1.60;1.50;;;26.90;61.60;;;;;;4877569;29;20061;-67
2022/08/13 08:36:38;;;;;;;3.17;1.60;;;27.00;61.10;;;;;;4875134;29;20105;-67
2022/08/13 08:44:40;;;;;;;4.40;1.40;;;27.30;59.60;;;;;;4875088;29;20045;-67
2022/08/13 08:47:07;;;;;;;3.22;1.40;;;27.30;58.00;;;;;;4877734;29;20063;-67
2022/08/13 08:49:35;;;;;;;3.95;1.52;;;27.50;58.70;;;;;;4875575;29;20427;-68
2022/08/13 08:52:01;;;;;;;2.63;1.48;;;27.60;57.60;;;;;;4874907;29;20129;-67
2022/08/13 08:54:29;;;;;;;3.65;1.77;;;27.60;56.90;;;;;;4861414;29;20056;-67
2022/08/13 08:56:57;;;;;;;1.95;1.50;;;27.70;56.40;;;;;;4880491;29;20392;-67
2022/08/13 08:59:28;;;;;;;1.77;1.55;;;27.70;56.10;;;;;;4881508;29;20045;-67
2022/08/13 09:01:55;;;;;;;4.05;1.60;;;27.80;55.70;;;;;;4864825;29;20438;-67
2022/08/13 09:04:25;;;;;;;3.50;1.60;;;27.90;55.20;;;;;;4880924;29;20081;-67
2022/08/13 09:06:52;;;;;;;4.50;1.60;;;27.90;56.00;;;;;;4881489;29;20087;-67
2022/08/13 09:09:20;;;;;;;4.72;1.63;;;28.10;56.00;;;;;;4881653;29;20057;-68
2022/08/13 09:11:52;;;;;;;1.42;1.33;;;28.20;56.70;;;;;;4881459;29;20383;-67
2022/08/13 09:14:19;;;;;;;2.65;1.60;;;28.40;55.10;;;;;;4850093;29;20075;-67
2022/08/13 09:16:45;;;;;;;4.45;1.63;;;28.50;55.50;;;;;;4881774;29;20049;-67
2022/08/13 09:19:12;;;;;;;2.55;1.40;;;28.50;54.60;;;;;;4879644;29;20073;-68
2022/08/13 09:21:48;;;;;;;6.53;1.73;;;28.60;54.30;;;;;;4880455;29;20071;-67
2022/08/13 09:24:15;;;;;;;1.40;1.30;;;28.60;53.50;;;;;;4880877;29;20057;-67
2022/08/13 09:26:51;;;;;;;4.05;1.50;;;28.60;53.20;;;;;;4880070;29;20088;-67
2022/08/13 09:29:19;;;;;;;4.38;1.70;;;28.70;52.50;;;;;;4868806;29;20478;-68
2022/08/13 09:31:49;;;;;;;1.58;1.40;;;28.80;52.40;;;;;;4879313;29;20056;-67
2022/08/13 09:34:15;;;;;;;1.70;1.60;;;28.90;52.10;;;;;;4881507;29;20056;-68
2022/08/13 09:36:42;;;;;;;3.05;1.30;;;28.90;51.20;;;;;;4864090;29;20166;-68
2022/08/13 09:39:08;;;;;;;3.00;1.25;;;28.90;51.80;;;;;;4881577;29;20060;-68
2022/08/13 09:41:42;;;;;;;2.83;1.60;;;28.90;51.30;;;;;;4881334;29;20049;-67
2022/08/13 09:44:08;;;;;;;3.67;1.73;;;29.00;50.60;;;;;;4879557;29;20505;-67
2022/08/13 09:46:34;;;;;;;1.60;1.50;;;29.00;50.80;;;;;;4873207;29;20066;-67
2022/08/13 09:49:00;;;;;;;2.08;1.50;;;29.00;50.80;;;;;;4881614;29;20116;-68
2022/08/13 09:51:35;;;;;;;4.20;1.73;;;29.10;49.80;;;;;;4869912;29;20045;-67
2022/08/13 09:54:10;;;;;;;2.88;1.50;;;29.00;49.00;;;;;;4866691;29;20080;-67
2022/08/13 09:56:37;;;;;;;2.75;1.85;;;29.10;48.80;;;;;;4880311;29;20498;-68
2022/08/13 09:59:05;;;;;;;1.77;1.40;;;29.20;49.40;;;;;;4880887;29;20057;-68
2022/08/13 10:01:32;;;;;;;2.70;1.35;;;29.20;48.90;;;;;;4868737;29;20470;-67
2022/08/13 10:03:57;;;;;;;2.08;1.70;;;29.20;48.90;;;;;;4879837;29;20383;-68
2022/08/13 10:06:28;;;;;;;1.95;1.42;;;29.20;48.80;;;;;;4879408;29;20083;-67
2022/08/13 10:08:54;;;;;;;1.50;1.40;;;29.20;48.70;;;;;;4877866;29;20059;-67
2022/08/13 10:11:22;;;;;;;3.13;1.35;;;29.20;48.60;;;;;;4879917;29;20066;-67
2022/08/13 10:13:48;;;;;;;1.77;1.45;;;29.30;48.80;;;;;;4879681;29;20152;-67
2022/08/13 10:16:14;;;;;;;3.75;1.70;;;29.30;48.40;;;;;;4880241;29;20482;-67
2022/08/13 10:18:41;;;;;;;2.03;1.50;;;29.40;48.00;;;;;;4879284;29;20053;-67
2022/08/13 10:21:08;;;;;;;1.60;1.50;;;29.40;48.00;;;;;;4879788;29;20041;-67
2022/08/13 10:23:33;;;;;;;1.45;1.35;;;29.30;48.40;;;;;;4863222;29;20387;-67
2022/08/13 10:26:00;;;;;;;1.50;1.40;;;29.50;48.50;;;;;;4879823;29;20060;-67
2022/08/13 10:28:28;;;;;;;3.35;1.73;;;29.60;48.00;;;;;;4879610;29;20148;-67
2022/08/13 10:30:54;;;;;;;2.00;1.50;;;29.60;48.20;;;;;;4862251;29;20049;-67
2022/08/13 10:33:21;;;;;;;1.48;1.38;;;29.60;48.00;;;;;;4864325;29;20068;-67
2022/08/13 10:35:52;;;;;;;4.10;1.40;;;29.60;47.80;;;;;;4845488;29;20140;-67
2022/08/13 10:41:11;;;;;;;3.83;1.67;;;29.50;47.70;;;;;;4879637;29;20045;-67
2022/08/13 10:43:38;;;;;;;3.40;1.35;;;29.70;48.00;;;;;;4879345;29;20041;-67
2022/08/13 10:46:06;;;;;;;1.85;1.45;;;29.80;48.70;;;;;;4861788;29;20056;-67
2022/08/13 10:48:31;;;;;;;3.83;1.63;;;29.80;47.60;;;;;;4879897;29;20144;-67
2022/08/13 10:50:58;;;;;;;1.42;1.33;;;29.80;48.00;;;;;;4861284;29;20123;-67
2022/08/13 10:53:58;;;;;;;1.58;1.48;;;30.00;48.30;;;;;;5151674;27;20457;-67
2022/08/13 10:56:29;;;;;;;2.20;1.40;;;30.00;46.60;;;;;;5151773;27;20082;-67
2022/08/13 10:58:57;;;;;;;4.00;1.65;;;30.00;47.00;;;;;;5150813;27;20041;-67
2022/08/13 11:01:24;;;;;;;1.77;1.50;;;30.00;46.70;;;;;;5150356;27;20034;-67
2022/08/13 11:03:56;;;;;;;1.92;1.60;;;30.10;47.00;;;;;;5151503;27;20039;-67
2022/08/13 11:06:33;;;;;;;1.45;1.35;;;30.00;46.30;;;;;;5146183;27;20067;-68
2022/08/13 11:08:59;;;;;;;3.00;1.45;;;30.00;47.20;;;;;;5131020;27;20050;-67
2022/08/13 11:11:25;;;;;;;1.40;1.30;;;30.00;46.70;;;;;;5130796;27;20379;-67
2022/08/13 11:13:52;;;;;;;2.17;1.60;;;30.00;46.50;;;;;;5131100;27;20157;-67
2022/08/13 11:16:56;;;;;;;1.63;1.42;;;30.10;46.10;;;;;;5135295;27;20039;-67
2022/08/13 11:19:15;;;;;;;2.47;1.40;;;30.10;45.70;;;;;;5148282;27;20394;-67
2022/08/13 11:21:45;;;;;;;1.73;1.40;;;30.10;45.50;;;;;;5150400;27;20062;-66
2022/08/13 11:24:12;;;;;;;1.80;1.70;;;30.10;45.10;;;;;;5132589;27;20035;-68
2022/08/13 11:26:38;;;;;;;3.63;1.70;;;30.20;45.30;;;;;;5146409;27;20530;-67
2022/08/13 11:29:05;;;;;;;3.28;1.70;;;30.10;45.10;;;;;;5149978;27;20043;-68
2022/08/13 11:31:31;;;;;;;1.77;1.65;;;30.20;44.90;;;;;;5149103;27;20035;-67
2022/08/13 11:33:57;;;;;;;1.55;1.40;;;30.20;44.70;;;;;;5147229;27;20046;-67
2022/08/13 11:36:23;;;;;;;3.70;1.77;;;30.30;44.60;;;;;;5150076;27;20113;-67
2022/08/13 11:38:48;;;;;;;3.30;1.80;;;30.30;44.40;;;;;;5143133;27;20437;-67
2022/08/13 11:41:14;;;;;;;1.30;1.20;;;30.40;44.80;;;;;;5150220;27;20483;-68
2022/08/13 11:43:40;;;;;;;1.42;1.33;;;30.50;44.50;;;;;;5151697;27;20047;-67
2022/08/13 11:46:06;;;;;;;3.15;1.52;;;30.60;44.60;;;;;;5148805;27;20078;-68
2022/08/13 11:48:32;;;;;;;1.75;1.50;;;30.60;44.20;;;;;;5165799;27;20047;-67
2022/08/13 11:50:57;;;;;;;2.33;1.45;;;30.70;43.90;;;;;;5149582;27;20046;-67
2022/08/13 11:53:24;;;;;;;2.40;1.58;;;30.70;44.20;;;;;;5150416;27;20055;-66
2022/08/13 11:55:50;;;;;;;2.45;1.70;;;30.60;44.20;;;;;;5130773;27;20053;-67
2022/08/13 11:58:16;;;;;;;3.25;1.85;;;30.50;44.30;;;;;;5149458;27;20112;-66
2022/08/13 12:00:42;;;;;;;2.22;1.60;;;30.60;44.40;;;;;;5144719;27;20051;-66
2022/08/13 12:03:39;;;;;;;2.35;1.70;;;30.70;44.50;;;;;;5125996;28;20113;-67
2022/08/13 12:06:29;;;;;;;;;;;30.80;44.50;;;;;;5139018;27;20038;-67
2022/08/13 12:08:55;;;;;;;1.98;1.50;;;30.70;44.00;;;;;;5136498;27;19911;-66
2022/08/13 12:11:21;;;;;;;3.25;1.75;;;30.70;44.00;;;;;;5134907;27;20371;-67
2022/08/13 12:13:47;;;;;;;2.55;1.50;;;30.60;44.20;;;;;;5136909;27;20096;-67
2022/08/13 12:16:12;;;;;;;4.47;1.70;;;30.60;44.70;;;;;;5135592;27;20409;-67
2022/08/13 12:18:38;;;;;;;2.40;1.60;;;30.40;44.30;;;;;;5134221;27;20034;-68
2022/08/13 12:21:04;;;;;;;1.58;1.48;;;30.20;44.30;;;;;;5135138;27;20074;-67
2022/08/13 12:23:30;;;;;;;2.38;1.50;;;30.20;45.00;;;;;;5119752;27;20043;-68
2022/08/13 12:25:55;;;;;;;4.63;1.90;;;30.10;45.00;;;;;;5098248;28;20435;-68
2022/08/13 12:28:23;;;;;;;2.08;1.65;;;30.20;45.00;;;;;;5128726;27;20055;-66
2022/08/13 12:30:58;;;;;;;2.65;1.60;;;30.30;44.80;;;;;;5133428;27;20126;-66
2022/08/13 12:33:26;;;;;;;2.03;1.83;;;30.40;45.10;;;;;;5136054;27;20055;-68
2022/08/13 12:35:51;;;;;;;1.67;1.58;;;30.60;45.00;;;;;;5134330;27;20039;-66
2022/08/13 12:38:17;;;;;;;1.83;1.35;;;30.70;44.70;;;;;;5132344;27;20096;-66
2022/08/13 12:40:44;;;;;;;4.45;1.38;;;30.70;44.00;;;;;;5134393;27;20051;-67
2022/08/13 12:43:11;;;;;;;4.82;1.55;;;30.70;43.70;;;;;;5117753;27;20088;-67
2022/08/13 12:45:37;;;;;;;4.47;1.90;;;30.90;44.20;;;;;;5128487;27;20043;-67
2022/08/13 12:48:08;;;;;;;2.25;2.05;;;30.90;43.80;;;;;;5125053;27;20085;-68
2022/08/13 12:50:35;;;;;;;3.47;1.73;;;31.10;43.70;;;;;;5130437;27;20051;-68
2022/08/13 12:53:02;;;;;;;2.45;1.40;;;31.10;43.70;;;;;;5134222;27;20391;-67
2022/08/13 12:55:27;;;;;;;2.47;1.75;;;31.30;44.00;;;;;;5134497;27;20054;-66
2022/08/13 12:57:53;;;;;;;2.42;1.55;;;31.30;43.90;;;;;;5134480;27;20039;-66
2022/08/13 13:00:19;;;;;;;1.45;1.35;;;31.40;43.90;;;;;;5134983;27;20379;-67
2022/08/13 13:02:44;;;;;;;2.42;1.25;;;31.30;43.30;;;;;;5134285;27;20047;-66
2022/08/13 13:05:10;;;;;;;2.33;1.63;;;31.40;44.20;;;;;;5133289;27;20478;-67
2022/08/13 13:07:35;;;;;;;3.47;1.50;;;31.50;43.60;;;;;;5126229;27;20032;-66
2022/08/13 13:10:02;;;;;;;3.63;1.50;;;31.50;44.10;;;;;;5113715;27;20055;-67
2022/08/13 13:12:28;;;;;;;2.28;1.60;;;31.70;43.60;;;;;;5113535;28;20070;-66
2022/08/13 13:14:54;;;;;;;1.77;1.50;;;31.70;43.30;;;;;;5113898;27;20108;-67
2022/08/13 13:17:19;;;;;;;2.15;1.60;;;31.70;43.80;;;;;;5132189;27;20055;-68
2022/08/13 13:19:45;;;;;;;1.85;1.63;;;31.60;43.00;;;;;;5134269;27;20043;-67
2022/08/13 13:22:11;;;;;;;1.60;1.50;;;31.60;43.00;;;;;;5133282;27;20154;-66
2022/08/13 13:24:37;;;;;;;2.83;1.50;;;31.60;43.40;;;;;;5132759;27;20078;-66
2022/08/13 13:27:04;;;;;;;3.17;1.45;;;31.70;43.00;;;;;;5134155;27;20054;-66
2022/08/13 13:29:38;;;;;;;2.00;1.90;;;31.60;42.40;;;;;;5134069;27;20138;-67
2022/08/13 13:32:13;;;;;;;4.05;1.60;;;31.60;41.80;;;;;;5135202;27;20416;-67
2022/08/13 13:34:43;;;;;;;2.00;1.60;;;31.40;42.10;;;;;;5134001;27;20050;-67
2022/08/13 13:37:10;;;;;;;4.13;1.88;;;31.20;42.40;;;;;;5134090;27;20490;-66